Time;durP1;ratioP1;P1;durP2;ratioP2;P2;SDS_P1;SDS_P2;PMS_P1;PMS_P2;Temp;Humidity;BMP_temperature;BMP_pressure;BME280_temperature;BME280_humidity;BME280_pressure;Samples;Min_cycle;Max_cycle;Signal;HPM_P1;HPM_P2
2022/12/18 00:00:12;;;;;;;10.20;5.30;;;;;;;6.85;54.37;101316.34;5023854;28;20050;-73
2022/12/18 00:02:41;;;;;;;8.30;5.28;;;;;;;6.79;55.06;101308.28;5024742;28;20052;-73
2022/12/18 00:05:10;;;;;;;7.63;5.00;;;;;;;6.67;55.77;101323.06;5025521;28;20076;-72
2022/12/18 00:07:39;;;;;;;11.75;5.22;;;;;;;6.54;56.88;101320.63;5021167;28;20048;-73
2022/12/18 00:10:09;;;;;;;12.00;5.63;;;;;;;6.45;56.77;101318.44;5025528;28;20079;-75
2022/12/18 00:12:37;;;;;;;9.93;5.13;;;;;;;6.36;57.14;101315.34;5024775;28;20049;-75
2022/12/18 00:15:07;;;;;;;11.23;5.13;;;;;;;6.31;58.13;101317.66;5024008;28;20321;-76
2022/12/18 00:17:37;;;;;;;11.23;5.78;;;;;;;6.26;57.80;101317.41;5023138;28;20041;-73
2022/12/18 00:20:06;;;;;;;7.55;5.13;;;;;;;6.21;58.21;101321.41;5023557;28;20057;-75
2022/12/18 00:22:35;;;;;;;9.77;4.93;;;;;;;6.15;58.06;101317.63;5023701;28;20081;-71
2022/12/18 00:25:04;;;;;;;10.25;4.45;;;;;;;6.09;59.12;101307.84;5022761;28;20517;-73
2022/12/18 00:27:32;;;;;;;19.50;9.80;;;;;;;6.04;61.85;101315.31;5025956;28;20522;-71
2022/12/18 00:30:01;;;;;;;10.93;5.72;;;;;;;6.00;61.37;101313.38;5025216;28;20407;-73
2022/12/18 00:32:30;;;;;;;34.53;17.00;;;;;;;5.91;62.80;101310.28;5022944;28;20415;-72
2022/12/18 00:35:00;;;;;;;98.60;40.65;;;;;;;5.93;72.04;101311.22;5026481;28;20056;-73
2022/12/18 00:37:29;;;;;;;11.35;4.82;;;;;;;5.87;70.19;101310.88;5024287;28;20151;-72
2022/12/18 00:39:57;;;;;;;8.70;4.88;;;;;;;5.73;69.00;101304.94;5027035;28;20529;-73
2022/12/18 00:45:12;;;;;;;9.30;4.38;;;;;;;5.59;67.43;101296.47;5025442;28;20060;-73
2022/12/18 00:47:40;;;;;;;8.82;4.95;;;;;;;5.56;67.85;101301.38;5023842;28;20049;-72
2022/12/18 00:50:11;;;;;;;8.68;4.50;;;;;;;5.48;68.25;101299.19;5026996;28;20397;-73
2022/12/18 00:52:42;;;;;;;10.60;4.88;;;;;;;5.39;69.74;101296.97;5025419;28;20407;-72
2022/12/18 00:55:11;;;;;;;7.25;4.25;;;;;;;5.36;69.35;101296.75;5026384;28;20076;-73
2022/12/18 00:57:40;;;;;;;10.95;5.70;;;;;;;5.38;69.83;101302.88;5024366;28;20059;-73
2022/12/18 01:00:11;;;;;;;11.23;5.35;;;;;;;5.38;68.94;101290.03;5025541;28;20525;-73
2022/12/18 01:02:40;;;;;;;9.30;4.32;;;;;;;5.40;70.84;101291.91;5026350;28;20411;-73
2022/12/18 01:05:12;;;;;;;11.25;5.05;;;;;;;5.35;68.62;101288.19;5022143;28;20418;-72
2022/12/18 01:07:40;;;;;;;8.85;4.75;;;;;;;5.35;69.55;101287.31;5025783;28;20458;-74
2022/12/18 01:10:11;;;;;;;6.35;3.60;;;;;;;5.35;70.12;101293.31;5023751;28;20137;-73
2022/12/18 01:12:40;;;;;;;9.10;4.70;;;;;;;5.29;70.14;101286.94;5023393;28;20415;-72
2022/12/18 01:15:11;;;;;;;11.45;4.43;;;;;;;5.17;69.26;101289.66;5026350;28;20192;-72
2022/12/18 01:17:40;;;;;;;7.85;4.38;;;;;;;5.15;69.56;101298.94;5027790;28;20052;-72
2022/12/18 01:20:10;;;;;;;8.38;5.20;;;;;;;5.11;68.71;101277.38;5026073;28;20049;-72
2022/12/18 01:22:40;;;;;;;9.02;4.63;;;;;;;5.17;69.17;101298.25;5026023;28;20053;-72
2022/12/18 01:25:10;;;;;;;6.53;4.43;;;;;;;5.13;69.13;101287.69;5025310;28;20407;-73
2022/12/18 01:27:39;;;;;;;8.40;4.78;;;;;;;5.08;68.37;101295.13;5025393;28;20054;-73
2022/12/18 01:30:08;;;;;;;9.07;4.55;;;;;;;5.08;68.63;101294.25;5024140;28;20049;-72
2022/12/18 01:32:37;;;;;;;10.55;5.10;;;;;;;5.09;68.89;101299.47;5020832;28;20648;-72
2022/12/18 01:35:06;;;;;;;10.32;5.60;;;;;;;5.04;68.99;101294.06;5025599;28;20056;-73
2022/12/18 01:37:35;;;;;;;10.52;4.95;;;;;;;5.04;70.36;101293.19;5016591;28;20439;-73
2022/12/18 01:40:06;;;;;;;9.93;5.32;;;;;;;5.07;70.13;101292.50;5004977;28;20060;-74
2022/12/18 01:42:35;;;;;;;11.40;5.05;;;;;;;5.08;68.69;101297.69;5005175;28;20053;-72
2022/12/18 01:45:07;;;;;;;12.07;5.85;;;;;;;5.09;67.55;101291.78;5004680;28;20038;-73
2022/12/18 01:47:43;;;;;;;11.63;5.60;;;;;;;5.08;67.86;101282.28;5005543;28;20520;-74
2022/12/18 01:50:14;;;;;;;17.98;7.32;;;;;;;5.14;67.61;101285.25;5004830;28;20107;-73
2022/12/18 01:52:45;;;;;;;16.87;7.03;;;;;;;5.16;67.06;101283.66;5003691;28;20054;-73
2022/12/18 01:55:19;;;;;;;12.32;4.93;;;;;;;5.15;69.23;101284.44;5002569;28;20423;-76
2022/12/18 01:57:49;;;;;;;11.48;5.75;;;;;;;5.02;69.46;101287.97;5005792;28;20086;-73
2022/12/18 02:00:22;;;;;;;10.70;5.25;;;;;;;4.96;68.10;101289.25;5002049;28;20057;-74
2022/12/18 02:02:50;;;;;;;12.35;6.55;;;;;;;4.93;68.67;101289.97;5000234;28;20037;-72
2022/12/18 02:05:24;;;;;;;14.90;6.00;;;;;;;4.94;70.34;101293.41;5005122;28;20050;-72
2022/12/18 02:08:05;;;;;;;9.80;5.13;;;;;;;5.00;70.49;101292.09;5003820;28;20104;-76
2022/12/18 02:10:43;;;;;;;15.52;5.75;;;;;;;4.96;71.25;101290.16;5001645;28;20202;-78
2022/12/18 02:13:20;;;;;;;9.35;5.55;;;;;;;4.88;69.37;101293.94;5003953;28;20052;-73
2022/12/18 02:15:59;;;;;;;12.43;5.97;;;;;;;4.85;68.91;101285.16;5008741;28;20052;-73
2022/12/18 02:18:33;;;;;;;10.95;6.03;;;;;;;4.86;68.57;101297.22;5006294;28;20057;-74
2022/12/18 02:21:10;;;;;;;11.60;6.30;;;;;;;4.87;68.73;101288.72;5006311;28;20042;-73
2022/12/18 02:23:54;;;;;;;12.68;5.95;;;;;;;4.89;69.91;101284.56;5003188;28;20046;-74
2022/12/18 02:26:30;;;;;;;15.05;6.50;;;;;;;4.92;69.25;101292.44;5005357;28;20082;-73
2022/12/18 02:29:04;;;;;;;12.93;5.90;;;;;;;4.95;69.67;101292.63;5005841;28;20149;-74
2022/12/18 02:31:38;;;;;;;13.10;5.47;;;;;;;4.98;69.27;101296.25;5005892;28;20045;-72
2022/12/18 02:34:10;;;;;;;17.52;7.25;;;;;;;4.98;68.84;101291.13;5005430;28;20046;-75
2022/12/18 02:36:42;;;;;;;16.00;6.25;;;;;;;4.99;69.43;101297.13;5001501;28;20954;-73
2022/12/18 02:39:12;;;;;;;;;;;;;;;5.03;69.12;101286.28;5023952;28;20049;-73
2022/12/18 02:41:43;;;;;;;15.18;7.15;;;;;;;5.02;68.52;101287.97;5020811;28;19945;-73
2022/12/18 02:44:20;;;;;;;17.23;8.32;;;;;;;5.02;68.75;101287.09;5022995;28;20523;-74
2022/12/18 02:46:53;;;;;;;20.50;8.15;;;;;;;5.05;70.56;101292.38;5025231;28;20060;-73
2022/12/18 02:49:37;;;;;;;20.27;8.10;;;;;;;5.07;69.25;101290.81;5024246;28;20052;-73
2022/12/18 02:52:16;;;;;;;12.00;6.15;;;;;;;5.02;69.60;101285.41;5020330;28;20049;-74
2022/12/18 02:54:58;;;;;;;13.20;5.75;;;;;;;4.97;71.70;101273.97;5023232;28;20049;-77
2022/12/18 02:57:36;;;;;;;9.27;4.85;;;;;;;4.99;72.17;101271.50;5025104;28;20073;-76
2022/12/18 03:00:08;;;;;;;11.23;5.80;;;;;;;5.03;72.16;101278.56;5019776;28;20080;-73
2022/12/18 03:02:42;;;;;;;10.33;5.97;;;;;;;5.06;71.39;101283.88;5015562;28;20072;-76
2022/12/18 03:05:15;;;;;;;17.08;7.43;;;;;;;5.09;70.23;101273.81;5019983;28;20081;-77
2022/12/18 03:07:49;;;;;;;13.70;6.47;;;;;;;5.11;70.29;101276.47;5018286;28;20045;-73
2022/12/18 03:10:23;;;;;;;15.20;7.00;;;;;;;5.12;70.46;101268.88;5021360;28;20133;-73
2022/12/18 03:12:58;;;;;;;18.48;7.00;;;;;;;5.15;70.40;101274.16;5012855;28;20050;-77
2022/12/18 03:15:31;;;;;;;16.02;6.35;;;;;;;5.16;70.79;101273.41;5019962;28;20491;-73
2022/12/18 03:18:06;;;;;;;14.43;7.60;;;;;;;5.18;70.45;101276.06;5013171;28;20041;-72
2022/12/18 03:20:38;;;;;;;16.10;7.50;;;;;;;5.18;70.09;101274.38;5019776;28;20741;-73
2022/12/18 03:23:11;;;;;;;13.93;7.18;;;;;;;5.17;69.12;101274.28;5020352;28;20053;-74
2022/12/18 03:25:43;;;;;;;13.80;7.28;;;;;;;5.17;69.17;101277.72;5018147;28;20053;-73
2022/12/18 03:28:17;;;;;;;11.88;6.40;;;;;;;5.18;69.20;101274.38;5020629;28;20046;-74
2022/12/18 03:30:48;;;;;;;11.32;6.43;;;;;;;5.20;69.27;101280.50;5017086;28;20078;-72
2022/12/18 03:33:21;;;;;;;15.38;7.38;;;;;;;5.20;68.17;101283.06;5021942;28;20524;-73
2022/12/18 03:35:49;;;;;;;;;;;;;;;5.20;68.37;101272.78;5021055;28;20054;-73
2022/12/18 03:38:18;;;;;;;13.48;6.63;;;;;;;5.19;68.14;101271.00;5021708;28;20298;-73
2022/12/18 03:40:57;;;;;;;13.43;7.30;;;;;;;5.19;68.25;101273.56;5018613;28;20052;-76
2022/12/18 03:43:37;;;;;;;12.52;6.30;;;;;;;5.18;68.68;101264.13;5016680;28;20057;-74
2022/12/18 03:46:13;;;;;;;15.10;6.18;;;;;;;5.19;68.18;101276.13;5017683;28;20060;-75
2022/12/18 03:48:46;;;;;;;17.30;7.13;;;;;;;5.18;68.19;101274.38;5022132;28;20049;-73
2022/12/18 03:51:20;;;;;;;19.35;7.63;;;;;;;5.19;67.99;101278.69;5019578;28;20585;-75
2022/12/18 03:53:53;;;;;;;13.20;7.03;;;;;;;5.15;68.49;101271.59;5010804;28;20062;-74
2022/12/18 03:56:27;;;;;;;15.88;7.18;;;;;;;5.11;68.39;101272.25;5018802;28;20049;-75
2022/12/18 03:58:59;;;;;;;14.65;8.05;;;;;;;5.11;68.86;101274.81;5019941;28;20068;-73
2022/12/18 04:01:33;;;;;;;15.10;6.57;;;;;;;5.10;68.82;101275.59;5025768;28;20050;-75
2022/12/18 04:04:03;;;;;;;13.15;7.32;;;;;;;5.09;68.74;101276.41;5026208;28;20058;-75
2022/12/18 04:06:33;;;;;;;10.85;6.88;;;;;;;5.09;69.16;101278.97;5021885;28;20380;-74
2022/12/18 04:09:02;;;;;;;10.23;5.78;;;;;;;5.06;68.99;101276.19;5022933;28;20049;-75
2022/12/18 04:11:30;;;;;;;13.73;6.85;;;;;;;5.03;69.41;101274.31;5021671;28;20095;-73
2022/12/18 04:14:01;;;;;;;9.02;6.22;;;;;;;5.04;70.64;101273.56;5021215;28;20243;-75
2022/12/18 04:16:30;;;;;;;13.98;6.25;;;;;;;4.99;71.71;101271.50;5022496;28;20055;-73
2022/12/18 04:18:58;;;;;;;15.60;6.40;;;;;;;4.91;71.06;101268.47;5027681;28;20053;-75
2022/12/18 04:21:27;;;;;;;10.65;5.70;;;;;;;4.86;71.58;101261.31;5019966;28;20057;-72
2022/12/18 04:23:56;;;;;;;14.98;6.88;;;;;;;4.89;72.62;101269.19;5023359;28;20041;-73
2022/12/18 04:26:25;;;;;;;13.18;6.45;;;;;;;4.91;72.21;101273.59;5020492;28;20045;-74
2022/12/18 04:28:53;;;;;;;13.63;6.20;;;;;;;4.93;71.45;101266.00;5021328;28;20319;-74
2022/12/18 04:31:24;;;;;;;15.57;6.90;;;;;;;4.89;71.64;101269.19;5022638;28;20410;-77
2022/12/18 04:33:53;;;;;;;12.82;6.63;;;;;;;4.83;72.03;101254.28;5019556;28;21126;-73
2022/12/18 04:36:22;;;;;;;13.45;7.38;;;;;;;4.76;71.56;101255.59;5021896;28;20432;-73
2022/12/18 04:38:50;;;;;;;13.27;6.13;;;;;;;4.74;73.12;101248.59;5008230;28;20504;-71
2022/12/18 04:41:19;;;;;;;11.73;6.90;;;;;;;4.78;73.15;101245.44;5003537;28;20053;-73
2022/12/18 04:43:48;;;;;;;14.15;6.78;;;;;;;4.79;72.27;101250.66;5003491;28;20054;-74
2022/12/18 04:46:17;;;;;;;13.60;7.07;;;;;;;4.85;72.06;101246.69;5003263;28;20060;-73
2022/12/18 04:48:48;;;;;;;18.35;9.10;;;;;;;4.88;71.80;101244.31;5001259;28;20556;-73
2022/12/18 04:51:17;;;;;;;15.02;6.60;;;;;;;4.90;71.14;101242.72;4992283;28;20046;-73
2022/12/18 04:53:46;;;;;;;15.07;7.10;;;;;;;4.91;72.67;101237.69;5002419;28;20492;-74
2022/12/18 04:56:22;;;;;;;11.45;5.70;;;;;;;4.87;72.12;101234.88;4999159;28;20054;-76
2022/12/18 04:58:51;;;;;;;10.60;5.72;;;;;;;4.79;70.92;101227.59;4998534;28;20500;-75
2022/12/18 05:01:20;;;;;;;13.30;6.63;;;;;;;4.65;71.83;101236.13;5004670;28;20066;-75
2022/12/18 05:03:53;;;;;;;13.63;6.97;;;;;;;4.57;72.37;101229.66;5007727;28;20050;-75
2022/12/18 05:06:21;;;;;;;15.93;7.22;;;;;;;4.58;72.88;101236.53;5000017;28;20490;-76
2022/12/18 05:08:50;;;;;;;15.50;6.80;;;;;;;4.63;73.40;101245.41;5005014;28;20054;-74
2022/12/18 05:11:19;;;;;;;13.90;6.93;;;;;;;4.64;73.76;101248.84;5003490;28;20420;-77
2022/12/18 05:13:48;;;;;;;11.90;6.60;;;;;;;4.65;73.52;101248.97;5001403;28;20069;-75
2022/12/18 05:16:17;;;;;;;14.10;6.97;;;;;;;4.67;73.10;101247.34;5004176;28;20056;-75
2022/12/18 05:18:46;;;;;;;11.48;6.18;;;;;;;4.69;72.73;101243.19;5003834;28;20130;-75
2022/12/18 05:21:16;;;;;;;14.70;7.43;;;;;;;4.72;72.74;101235.72;5007504;28;20049;-75
2022/12/18 05:23:45;;;;;;;13.65;6.88;;;;;;;4.74;72.54;101244.38;5006089;28;20535;-76
2022/12/18 05:26:18;;;;;;;12.55;6.45;;;;;;;4.76;72.52;101247.03;5002256;28;20046;-75
2022/12/18 05:28:47;;;;;;;12.63;6.70;;;;;;;4.77;71.87;101249.69;4997014;28;20131;-75
2022/12/18 05:31:16;;;;;;;15.10;6.80;;;;;;;4.75;72.23;101243.59;5005832;28;20528;-76
2022/12/18 05:33:45;;;;;;;14.68;7.50;;;;;;;4.75;72.54;101241.03;5007962;28;20054;-75
2022/12/18 05:36:16;;;;;;;15.38;7.03;;;;;;;4.76;72.43;101242.78;5002640;28;20439;-74
2022/12/18 05:38:45;;;;;;;21.98;6.88;;;;;;;4.77;72.16;101246.25;5016510;28;20056;-75
2022/12/18 05:41:13;;;;;;;15.23;8.07;;;;;;;4.79;71.86;101242.97;5023463;28;20049;-75
2022/12/18 05:43:43;;;;;;;17.58;7.78;;;;;;;4.79;72.64;101248.09;5030058;28;21057;-75
2022/12/18 05:46:15;;;;;;;12.23;6.90;;;;;;;4.74;72.64;101241.81;5028422;28;20046;-75
2022/12/18 05:48:44;;;;;;;13.65;7.10;;;;;;;4.66;72.75;101247.28;5028143;28;20042;-75
2022/12/18 05:51:16;;;;;;;13.00;6.43;;;;;;;4.59;74.72;101240.88;5023639;28;20443;-75
2022/12/18 05:53:45;;;;;;;10.60;6.00;;;;;;;4.55;78.12;101233.78;5025953;28;20068;-75
2022/12/18 05:56:16;;;;;;;12.45;6.65;;;;;;;4.56;78.40;101238.16;5026969;28;20052;-75
2022/12/18 05:58:45;;;;;;;17.63;6.55;;;;;;;4.58;78.77;101232.31;5026286;28;20053;-75
2022/12/18 06:01:16;;;;;;;14.25;6.72;;;;;;;4.60;78.03;101245.19;5023819;28;20045;-75
2022/12/18 06:03:45;;;;;;;20.90;9.30;;;;;;;4.60;77.55;101245.19;5027437;28;20053;-75
2022/12/18 06:06:20;;;;;;;18.60;8.45;;;;;;;4.62;77.45;101243.63;5023138;28;20053;-78
2022/12/18 06:08:49;;;;;;;17.40;8.30;;;;;;;4.68;77.18;101236.31;5023479;28;20519;-74
2022/12/18 06:11:20;;;;;;;20.20;8.68;;;;;;;4.71;77.08;101238.19;5023016;28;20563;-74
2022/12/18 06:13:51;;;;;;;18.23;8.68;;;;;;;4.72;76.58;101233.16;5023307;28;20052;-75
2022/12/18 06:16:19;;;;;;;18.05;8.00;;;;;;;4.73;78.14;101240.03;5022101;28;20049;-75
2022/12/18 06:18:48;;;;;;;17.20;8.38;;;;;;;4.70;78.03;101237.31;5027155;28;20550;-73
2022/12/18 06:21:18;;;;;;;17.90;8.40;;;;;;;4.72;78.86;101239.94;5024396;28;20095;-73
2022/12/18 06:23:47;;;;;;;16.48;8.00;;;;;;;4.70;78.69;101245.00;5023179;28;20088;-75
2022/12/18 06:26:16;;;;;;;16.58;7.63;;;;;;;4.70;77.69;101246.69;5018791;28;20095;-74
2022/12/18 06:28:45;;;;;;;13.85;7.32;;;;;;;4.73;78.19;101242.59;5021868;28;20566;-74
2022/12/18 06:31:14;;;;;;;19.35;8.30;;;;;;;4.76;79.21;101237.66;5024937;28;20049;-74
2022/12/18 06:33:43;;;;;;;19.63;8.80;;;;;;;4.80;78.02;101239.59;5026315;28;20081;-75
2022/12/18 06:36:14;;;;;;;19.83;8.38;;;;;;;4.79;78.81;101242.97;5021515;28;20494;-75
2022/12/18 06:38:45;;;;;;;17.30;8.93;;;;;;;4.75;78.36;101235.88;5024551;28;20061;-74
2022/12/18 06:41:15;;;;;;;19.30;8.38;;;;;;;4.77;77.97;101238.56;5026663;28;20055;-75
2022/12/18 06:43:44;;;;;;;17.10;8.52;;;;;;;4.81;77.64;101240.50;5022233;28;20492;-74
2022/12/18 06:46:14;;;;;;;14.70;8.18;;;;;;;4.86;77.96;101248.50;5022438;28;20408;-74
2022/12/18 06:48:42;;;;;;;17.65;9.50;;;;;;;4.87;77.42;101234.88;5022528;28;20057;-74
2022/12/18 06:51:12;;;;;;;16.83;8.50;;;;;;;4.90;76.43;101229.91;5022158;28;20557;-74
2022/12/18 06:53:41;;;;;;;18.95;8.13;;;;;;;4.92;76.07;101233.44;5015222;28;20064;-74
2022/12/18 06:56:11;;;;;;;19.00;7.93;;;;;;;4.91;77.19;101232.56;5019481;28;20049;-81
2022/12/18 06:58:40;;;;;;;22.88;9.48;;;;;;;4.92;77.39;101246.28;5024009;28;20052;-73
2022/12/18 07:01:11;;;;;;;17.85;9.05;;;;;;;4.92;76.29;101243.72;5023562;28;20071;-73
2022/12/18 07:03:41;;;;;;;16.55;9.40;;;;;;;4.93;76.80;101240.38;5024455;28;20056;-73
2022/12/18 07:06:16;;;;;;;15.30;8.48;;;;;;;4.94;77.10;101245.56;5018939;28;20057;-74
2022/12/18 07:08:45;;;;;;;16.75;8.77;;;;;;;4.92;78.80;101243.72;5024687;28;20044;-74
2022/12/18 07:11:16;;;;;;;14.40;8.38;;;;;;;4.94;79.01;101242.13;5022388;28;20504;-76
2022/12/18 07:13:45;;;;;;;17.05;8.60;;;;;;;4.96;78.08;101245.66;5025936;28;20358;-75
2022/12/18 07:16:15;;;;;;;17.77;8.32;;;;;;;4.95;77.57;101244.78;5019221;28;20419;-75
2022/12/18 07:18:44;;;;;;;17.60;8.45;;;;;;;4.95;77.29;101247.34;5020913;28;20045;-75
2022/12/18 07:21:16;;;;;;;13.40;6.82;;;;;;;4.94;77.70;101255.81;5024240;28;20384;-76
2022/12/18 07:23:47;;;;;;;14.20;7.40;;;;;;;4.93;78.33;101245.50;5019406;28;20147;-74
2022/12/18 07:26:20;;;;;;;18.55;8.50;;;;;;;4.95;78.20;101249.03;5024657;28;20052;-74
2022/12/18 07:28:49;;;;;;;16.10;7.57;;;;;;;4.97;76.77;101250.00;5026059;28;20041;-74
2022/12/18 07:31:20;;;;;;;18.35;9.07;;;;;;;4.99;76.55;101250.97;5023594;28;20395;-73
2022/12/18 07:33:49;;;;;;;23.33;9.18;;;;;;;5.01;76.86;101251.94;5021848;28;20115;-74
2022/12/18 07:36:18;;;;;;;20.77;9.98;;;;;;;4.99;77.12;101245.84;5022505;28;20141;-74
2022/12/18 07:38:49;;;;;;;20.52;10.25;;;;;;;4.96;76.44;101248.22;5029005;28;20063;-75
2022/12/18 07:41:20;;;;;;;23.45;9.98;;;;;;;4.97;76.65;101243.22;5026273;28;20104;-74
2022/12/18 07:43:48;;;;;;;19.92;8.25;;;;;;;4.99;77.45;101241.63;5025823;28;20072;-74
2022/12/18 07:46:18;;;;;;;18.50;9.07;;;;;;;4.99;78.36;101245.84;5026790;28;20057;-74
2022/12/18 07:48:47;;;;;;;25.65;9.68;;;;;;;4.99;78.39;101244.19;5027881;28;20401;-75
2022/12/18 07:51:16;;;;;;;17.35;9.13;;;;;;;5.02;78.10;101246.94;5026262;28;20050;-76
2022/12/18 07:53:44;;;;;;;21.98;8.65;;;;;;;5.00;78.14;101239.94;5027024;28;20053;-76
2022/12/18 07:56:14;;;;;;;16.50;8.25;;;;;;;4.94;78.76;101231.88;5027400;28;20042;-77
2022/12/18 07:58:47;;;;;;;11.90;7.18;;;;;;;4.88;80.84;101236.63;5030364;28;20656;-77
2022/12/18 08:01:16;;;;;;;17.80;8.02;;;;;;;4.82;80.38;101220.09;5029980;28;20098;-74
2022/12/18 08:03:44;;;;;;;20.77;7.90;;;;;;;4.77;81.02;101216.38;5025747;28;20053;-74
2022/12/18 08:06:13;;;;;;;16.15;8.20;;;;;;;4.75;80.17;101223.06;5031256;28;20049;-77
2022/12/18 08:08:42;;;;;;;16.40;7.35;;;;;;;4.76;80.74;101217.13;5027388;28;20664;-75
2022/12/18 08:11:10;;;;;;;16.00;7.93;;;;;;;4.78;80.19;101215.56;5029638;28;20053;-75
2022/12/18 08:13:39;;;;;;;14.95;8.05;;;;;;;4.82;79.73;101216.63;5030648;28;20532;-76
2022/12/18 08:16:10;;;;;;;15.02;6.80;;;;;;;4.82;79.27;101214.94;5030712;28;20045;-77
2022/12/18 08:18:39;;;;;;;17.15;7.97;;;;;;;4.87;78.39;101214.34;5029929;28;20046;-76
2022/12/18 08:21:11;;;;;;;16.60;7.85;;;;;;;4.87;77.58;101214.34;5028724;28;20041;-77
2022/12/18 08:23:40;;;;;;;20.80;8.25;;;;;;;4.87;77.82;101219.47;5027682;28;20570;-77
2022/12/18 08:26:08;;;;;;;18.08;8.05;;;;;;;4.86;77.87;101217.72;5025940;28;20514;-76
2022/12/18 08:28:37;;;;;;;19.05;9.25;;;;;;;4.87;77.98;101222.03;5025512;28;20095;-77
2022/12/18 08:31:06;;;;;;;20.58;8.60;;;;;;;4.88;78.21;101216.09;5026677;28;20050;-78
2022/12/18 08:33:37;;;;;;;19.33;9.70;;;;;;;4.89;78.07;101210.19;5027555;28;20628;-77
2022/12/18 08:36:07;;;;;;;17.30;9.88;;;;;;;4.91;78.47;101211.19;5026697;28;20553;-77
2022/12/18 08:38:35;;;;;;;19.90;9.07;;;;;;;4.92;77.58;101216.38;5026711;28;20058;-77
2022/12/18 08:41:06;;;;;;;21.90;10.85;;;;;;;4.93;77.88;101215.59;5025858;28;20107;-77
2022/12/18 08:46:21;;;;;;;22.33;9.48;;;;;;;4.95;77.92;101206.31;5024991;28;20060;-77
2022/12/18 08:48:52;;;;;;;19.58;9.95;;;;;;;4.95;77.86;101205.44;5025316;28;20041;-77
2022/12/18 08:51:22;;;;;;;19.77;10.35;;;;;;;4.96;78.06;101204.63;5025619;28;20050;-78
2022/12/18 08:53:50;;;;;;;18.25;10.00;;;;;;;4.96;78.04;101208.09;5030919;28;20715;-76
2022/12/18 08:56:19;;;;;;;20.23;10.52;;;;;;;4.97;77.74;101212.44;5027506;28;20594;-76
2022/12/18 08:58:47;;;;;;;20.75;8.93;;;;;;;4.99;77.73;101204.81;5028959;28;20054;-77
2022/12/18 09:01:16;;;;;;;21.65;9.05;;;;;;;4.95;78.84;101203.75;5028551;28;20044;-77
2022/12/18 09:03:49;;;;;;;18.40;9.15;;;;;;;4.93;79.76;101199.34;5028377;28;20041;-77
2022/12/18 09:06:21;;;;;;;17.95;8.90;;;;;;;4.90;80.63;101194.91;5026089;28;20522;-77
2022/12/18 09:08:50;;;;;;;13.07;7.95;;;;;;;4.83;81.13;101196.22;5026863;28;20149;-77
2022/12/18 09:11:22;;;;;;;21.92;9.30;;;;;;;4.77;83.08;101188.16;5021756;28;20054;-78
2022/12/18 09:13:51;;;;;;;13.77;7.43;;;;;;;4.70;82.69;101183.47;5027910;28;20103;-78
2022/12/18 09:16:21;;;;;;;19.08;7.90;;;;;;;4.69;83.18;101184.25;5029116;28;20403;-77
2022/12/18 09:18:49;;;;;;;18.23;8.27;;;;;;;4.74;83.51;101192.22;5024409;28;20055;-76
2022/12/18 09:21:21;;;;;;;17.17;7.43;;;;;;;4.76;83.81;101190.63;5021977;28;20089;-77
2022/12/18 09:23:52;;;;;;;20.17;8.80;;;;;;;4.79;82.97;101198.53;5022680;28;20609;-77
2022/12/18 09:26:21;;;;;;;17.55;7.72;;;;;;;4.80;83.11;101196.03;5026715;28;20216;-77
2022/12/18 09:28:50;;;;;;;17.33;8.52;;;;;;;4.82;82.43;101197.00;5019198;28;20041;-77
2022/12/18 09:31:21;;;;;;;16.33;7.25;;;;;;;4.86;83.12;101198.09;5024090;28;20121;-78
2022/12/18 09:33:49;;;;;;;15.98;8.05;;;;;;;4.81;82.18;101185.00;5027657;28;20048;-76
2022/12/18 09:36:20;;;;;;;20.38;8.52;;;;;;;4.79;83.81;101191.72;5026350;28;20053;-77
2022/12/18 09:38:55;;;;;;;17.35;8.82;;;;;;;4.76;84.52;101191.50;5025991;28;20435;-77
2022/12/18 09:41:45;;;;;;;14.82;7.82;;;;;;;4.77;84.09;101188.16;5025217;28;20292;-76
2022/12/18 09:44:24;;;;;;;20.77;8.27;;;;;;;4.80;83.48;101182.31;5024884;28;20768;-77
2022/12/18 09:47:01;;;;;;;17.65;7.78;;;;;;;4.82;84.74;101197.00;5024693;28;20044;-77
2022/12/18 09:49:33;;;;;;;16.30;6.57;;;;;;;4.84;84.61;101194.53;5021341;28;20049;-77
2022/12/18 09:52:07;;;;;;;17.70;7.43;;;;;;;4.88;84.38;101193.03;5020565;28;20045;-78
2022/12/18 09:54:40;;;;;;;14.70;7.47;;;;;;;4.88;84.41;101191.38;5027576;28;20134;-77
2022/12/18 09:57:16;;;;;;;14.82;6.82;;;;;;;4.88;85.38;101186.25;5025967;28;20706;-78
2022/12/18 09:59:50;;;;;;;17.10;6.93;;;;;;;4.82;85.16;101180.75;5023629;28;20054;-78
2022/12/18 10:02:22;;;;;;;16.95;6.53;;;;;;;4.76;85.50;101181.25;5024597;28;20061;-77
2022/12/18 10:05:01;;;;;;;13.13;6.35;;;;;;;4.73;85.13;101183.63;5027736;28;20132;-77
2022/12/18 10:07:39;;;;;;;17.45;7.60;;;;;;;4.73;86.49;101181.06;5028533;28;20064;-76
2022/12/18 10:10:15;;;;;;;16.55;6.28;;;;;;;4.74;86.71;101185.44;5025777;28;20061;-76
2022/12/18 10:12:50;;;;;;;14.93;6.97;;;;;;;4.78;86.54;101189.91;5027973;28;20049;-76
2022/12/18 10:15:32;;;;;;;14.27;7.22;;;;;;;4.81;86.18;101185.00;5023240;28;20104;-76
2022/12/18 10:18:16;;;;;;;15.90;7.60;;;;;;;4.87;85.47;101188.72;5026736;28;20542;-77
2022/12/18 10:20:50;;;;;;;11.15;6.30;;;;;;;4.88;86.27;101186.25;5026729;28;20052;-76
2022/12/18 10:23:28;;;;;;;12.05;6.57;;;;;;;4.90;86.71;101194.00;5027868;28;20065;-77
2022/12/18 10:26:02;;;;;;;13.05;6.45;;;;;;;4.90;86.05;101200.03;5024100;28;20054;-77
2022/12/18 10:28:32;;;;;;;12.32;6.50;;;;;;;4.91;85.25;101200.94;5025884;28;20056;-77
2022/12/18 10:31:01;;;;;;;13.25;7.13;;;;;;;4.90;85.14;101199.13;5026400;28;20123;-78
2022/12/18 10:33:32;;;;;;;12.23;6.32;;;;;;;4.93;85.45;101199.34;5026698;28;20542;-78
2022/12/18 10:36:02;;;;;;;16.85;7.50;;;;;;;4.94;85.10;101201.09;5023413;28;20045;-76
2022/12/18 10:38:34;;;;;;;13.57;6.47;;;;;;;4.95;85.24;101190.94;5022561;28;20061;-77
2022/12/18 10:41:04;;;;;;;14.70;6.70;;;;;;;4.97;85.77;101194.47;5023955;28;20048;-76
2022/12/18 10:43:34;;;;;;;16.23;7.32;;;;;;;4.96;86.04;101191.81;5024623;28;20048;-77
2022/12/18 10:46:22;;;;;;;15.60;7.45;;;;;;;4.94;86.06;101193.41;5025042;28;20058;-76
2022/12/18 10:48:54;;;;;;;14.02;6.25;;;;;;;4.91;86.09;101190.66;5023103;28;20041;-77
2022/12/18 10:51:23;;;;;;;;;;;;;;;4.94;86.17;101193.41;5026788;28;20916;-78
2022/12/18 10:53:58;;;;;;;11.23;6.40;;;;;;;4.95;86.12;101200.31;5025239;28;19927;-77
2022/12/18 10:56:29;;;;;;;12.18;6.65;;;;;;;4.97;85.56;101196.13;5024672;28;20046;-77
2022/12/18 10:59:00;;;;;;;11.82;6.00;;;;;;;4.99;85.18;101194.56;5023443;28;20053;-77
2022/12/18 11:01:29;;;;;;;9.63;5.63;;;;;;;5.00;85.46;101191.22;5025012;28;20049;-77
2022/12/18 11:04:04;;;;;;;11.85;6.15;;;;;;;5.00;84.90;101192.09;5023056;28;20420;-77
2022/12/18 11:06:33;;;;;;;10.65;4.97;;;;;;;5.02;84.41;101187.06;5021848;28;21178;-77
2022/12/18 11:09:05;;;;;;;8.25;4.20;;;;;;;5.01;85.07;101190.41;5024044;28;20519;-78
2022/12/18 11:11:35;;;;;;;8.05;4.97;;;;;;;5.00;84.95;101184.38;5024976;28;20038;-78
2022/12/18 11:14:06;;;;;;;10.23;5.50;;;;;;;4.96;83.99;101179.00;5024718;28;20092;-79
2022/12/18 11:16:38;;;;;;;13.48;6.00;;;;;;;4.94;84.95;101180.59;5025904;28;20550;-77
2022/12/18 11:19:22;;;;;;;8.95;5.32;;;;;;;4.98;86.78;101179.97;5024378;28;20064;-77
2022/12/18 11:21:51;;;;;;;9.43;5.63;;;;;;;5.01;86.33;101182.72;5026682;28;20053;-77
2022/12/18 11:24:30;;;;;;;14.52;5.50;;;;;;;5.03;85.47;101181.13;5027516;28;20521;-78
2022/12/18 11:27:01;;;;;;;11.30;5.38;;;;;;;5.02;85.47;101174.22;5024351;28;20535;-77
2022/12/18 11:29:35;;;;;;;13.43;6.15;;;;;;;4.96;86.89;101168.75;5023627;28;20045;-78
2022/12/18 11:32:35;;;;;;;10.68;5.60;;;;;;;4.96;87.75;101169.63;5025162;28;20514;-78
2022/12/18 11:35:12;;;;;;;13.77;5.57;;;;;;;4.98;88.06;101174.84;4990116;28;20046;-76
2022/12/18 11:37:43;;;;;;;10.63;5.07;;;;;;;4.97;88.37;101167.94;5024121;28;20647;-76
2022/12/18 11:40:18;;;;;;;9.70;5.22;;;;;;;4.95;88.62;101169.53;5024520;28;20775;-76
2022/12/18 11:42:53;;;;;;;17.95;5.30;;;;;;;4.90;88.48;101164.16;5025281;28;20052;-77
2022/12/18 11:45:31;;;;;;;10.60;4.70;;;;;;;4.88;89.52;101155.47;5023453;28;20061;-77
2022/12/18 11:48:05;;;;;;;9.20;4.95;;;;;;;4.88;89.81;101155.47;5024340;28;20077;-77
2022/12/18 11:50:44;;;;;;;9.48;5.47;;;;;;;4.90;89.70;101147.84;5023678;28;20046;-77